sensor_id;sensor_type;location;lat;lon;timestamp;temperature;humidity
41469;DHT22;27206;47.032;15.484;2022-08-19T00:00:08;19.40;1.00
41469;DHT22;27206;47.032;15.484;2022-08-19T00:02:36;19.40;1.00
41469;DHT22;27206;47.032;15.484;2022-08-19T00:05:02;19.40;1.00
41469;DHT22;27206;47.032;15.484;2022-08-19T00:07:28;19.20;1.00
41469;DHT22;27206;47.032;15.484;2022-08-19T00:09:54;19.20;1.00
41469;DHT22;27206;47.032;15.484;2022-08-19T00:12:20;19.20;1.00
41469;DHT22;27206;47.032;15.484;2022-08-19T00:14:46;19.00;1.00
41469;DHT22;27206;47.032;15.484;2022-08-19T00:17:11;19.10;1.00
41469;DHT22;27206;47.032;15.484;2022-08-19T00:19:38;19.20;1.00
41469;DHT22;27206;47.032;15.484;2022-08-19T00:22:04;19.30;1.00
41469;DHT22;27206;47.032;15.484;2022-08-19T00:24:31;19.30;1.00
41469;DHT22;27206;47.032;15.484;2022-08-19T00:26:58;19.30;1.00
41469;DHT22;27206;47.032;15.484;2022-08-19T00:29:24;19.30;1.00
41469;DHT22;27206;47.032;15.484;2022-08-19T00:31:51;19.30;1.00
41469;DHT22;27206;47.032;15.484;2022-08-19T00:34:20;19.20;1.00
41469;DHT22;27206;47.032;15.484;2022-08-19T00:36:47;19.30;1.00
41469;DHT22;27206;47.032;15.484;2022-08-19T00:39:14;19.30;1.00
41469;DHT22;27206;47.032;15.484;2022-08-19T00:41:41;19.20;1.00
41469;DHT22;27206;47.032;15.484;2022-08-19T00:44:12;19.20;1.00
41469;DHT22;27206;47.032;15.484;2022-08-19T00:46:41;19.10;1.00
41469;DHT22;27206;47.032;15.484;2022-08-19T00:51:58;19.00;1.00
41469;DHT22;27206;47.032;15.484;2022-08-19T00:54:25;19.00;1.00
41469;DHT22;27206;47.032;15.484;2022-08-19T00:56:51;18.90;1.00
41469;DHT22;27206;47.032;15.484;2022-08-19T00:59:18;18.80;1.00
41469;DHT22;27206;47.032;15.484;2022-08-19T01:01:45;18.70;1.00
41469;DHT22;27206;47.032;15.484;2022-08-19T01:04:12;18.70;1.00
41469;DHT22;27206;47.032;15.484;2022-08-19T01:06:39;18.70;1.00
41469;DHT22;27206;47.032;15.484;2022-08-19T01:09:07;18.60;1.00
41469;DHT22;27206;47.032;15.484;2022-08-19T01:11:35;18.60;1.00
41469;DHT22;27206;47.032;15.484;2022-08-19T01:14:02;18.50;1.00
41469;DHT22;27206;47.032;15.484;2022-08-19T01:16:29;18.50;1.00
41469;DHT22;27206;47.032;15.484;2022-08-19T01:18:56;18.40;1.00
41469;DHT22;27206;47.032;15.484;2022-08-19T01:21:31;18.50;5.30
41469;DHT22;27206;47.032;15.484;2022-08-19T01:23:58;18.50;3.00
41469;DHT22;27206;47.032;15.484;2022-08-19T01:26:25;18.30;1.60
41469;DHT22;27206;47.032;15.484;2022-08-19T01:28:55;18.30;8.40
41469;DHT22;27206;47.032;15.484;2022-08-19T01:31:24;18.30;3.50
41469;DHT22;27206;47.032;15.484;2022-08-19T01:33:51;18.40;1.00
41469;DHT22;27206;47.032;15.484;2022-08-19T01:38:56;18.40;1.00
41469;DHT22;27206;47.032;15.484;2022-08-19T01:41:23;18.40;1.00
41469;DHT22;27206;47.032;15.484;2022-08-19T01:43:51;18.50;1.00
41469;DHT22;27206;47.032;15.484;2022-08-19T01:46:18;18.70;1.00
41469;DHT22;27206;47.032;15.484;2022-08-19T01:48:45;18.70;1.00
41469;DHT22;27206;47.032;15.484;2022-08-19T01:51:11;18.80;1.00
41469;DHT22;27206;47.032;15.484;2022-08-19T01:53:37;18.90;1.00
41469;DHT22;27206;47.032;15.484;2022-08-19T01:56:04;18.90;1.00
41469;DHT22;27206;47.032;15.484;2022-08-19T01:58:41;19.00;1.00
41469;DHT22;27206;47.032;15.484;2022-08-19T02:01:08;19.00;1.00
41469;DHT22;27206;47.032;15.484;2022-08-19T02:03:34;19.00;1.00
41469;DHT22;27206;47.032;15.484;2022-08-19T02:06:01;18.90;1.00
41469;DHT22;27206;47.032;15.484;2022-08-19T02:08:29;18.90;1.00
41469;DHT22;27206;47.032;15.484;2022-08-19T02:10:56;18.80;1.00
41469;DHT22;27206;47.032;15.484;2022-08-19T02:13:22;18.70;1.00
41469;DHT22;27206;47.032;15.484;2022-08-19T02:15:48;18.50;1.00
41469;DHT22;27206;47.032;15.484;2022-08-19T02:18:13;18.40;1.00
41469;DHT22;27206;47.032;15.484;2022-08-19T02:20:40;18.40;1.00
41469;DHT22;27206;47.032;15.484;2022-08-19T02:23:07;18.40;1.00
41469;DHT22;27206;47.032;15.484;2022-08-19T02:25:33;18.50;1.00
41469;DHT22;27206;47.032;15.484;2022-08-19T02:27:58;18.50;1.00
41469;DHT22;27206;47.032;15.484;2022-08-19T02:30:24;18.50;1.00
41469;DHT22;27206;47.032;15.484;2022-08-19T02:32:51;18.60;1.00
41469;DHT22;27206;47.032;15.484;2022-08-19T02:35:17;18.60;1.00
41469;DHT22;27206;47.032;15.484;2022-08-19T02:37:43;18.60;1.00
41469;DHT22;27206;47.032;15.484;2022-08-19T02:40:29;18.60;1.00
41469;DHT22;27206;47.032;15.484;2022-08-19T02:42:55;18.60;1.00
41469;DHT22;27206;47.032;15.484;2022-08-19T02:45:20;18.40;1.00
41469;DHT22;27206;47.032;15.484;2022-08-19T02:47:46;18.40;1.00
41469;DHT22;27206;47.032;15.484;2022-08-19T02:50:12;18.40;1.00
41469;DHT22;27206;47.032;15.484;2022-08-19T02:52:38;18.40;1.00
41469;DHT22;27206;47.032;15.484;2022-08-19T02:55:04;18.40;1.00
41469;DHT22;27206;47.032;15.484;2022-08-19T02:57:30;18.40;1.00
41469;DHT22;27206;47.032;15.484;2022-08-19T02:59:57;18.30;1.00
41469;DHT22;27206;47.032;15.484;2022-08-19T03:02:23;18.30;1.00
41469;DHT22;27206;47.032;15.484;2022-08-19T03:04:49;18.30;1.00
41469;DHT22;27206;47.032;15.484;2022-08-19T03:07:16;18.10;6.20
41469;DHT22;27206;47.032;15.484;2022-08-19T03:09:41;18.00;13.10
41469;DHT22;27206;47.032;15.484;2022-08-19T03:12:10;18.20;6.30
41469;DHT22;27206;47.032;15.484;2022-08-19T03:14:36;18.20;1.00
41469;DHT22;27206;47.032;15.484;2022-08-19T03:17:03;18.20;1.00
41469;DHT22;27206;47.032;15.484;2022-08-19T03:19:30;18.20;1.00
41469;DHT22;27206;47.032;15.484;2022-08-19T03:21:57;18.20;6.70
41469;DHT22;27206;47.032;15.484;2022-08-19T03:24:23;18.10;13.40
41469;DHT22;27206;47.032;15.484;2022-08-19T03:26:51;18.10;17.50
41469;DHT22;27206;47.032;15.484;2022-08-19T03:29:19;18.10;34.00
41469;DHT22;27206;47.032;15.484;2022-08-19T03:31:45;18.10;33.60
41469;DHT22;27206;47.032;15.484;2022-08-19T03:34:19;18.10;37.10
41469;DHT22;27206;47.032;15.484;2022-08-19T03:36:45;18.20;33.90
41469;DHT22;27206;47.032;15.484;2022-08-19T03:39:13;18.20;38.40
41469;DHT22;27206;47.032;15.484;2022-08-19T03:41:42;18.10;35.40
41469;DHT22;27206;47.032;15.484;2022-08-19T03:44:08;18.10;37.60
41469;DHT22;27206;47.032;15.484;2022-08-19T03:46:34;18.10;30.90
41469;DHT22;27206;47.032;15.484;2022-08-19T03:49:03;18.00;29.30
41469;DHT22;27206;47.032;15.484;2022-08-19T03:51:37;18.00;39.80
41469;DHT22;27206;47.032;15.484;2022-08-19T03:54:06;18.00;38.70
41469;DHT22;27206;47.032;15.484;2022-08-19T03:56:37;18.00;21.00
41469;DHT22;27206;47.032;15.484;2022-08-19T03:59:04;18.00;26.80
41469;DHT22;27206;47.032;15.484;2022-08-19T04:01:30;18.00;10.40
41469;DHT22;27206;47.032;15.484;2022-08-19T04:03:57;18.10;2.10
41469;DHT22;27206;47.032;15.484;2022-08-19T04:06:26;18.10;2.20
41469;DHT22;27206;47.032;15.484;2022-08-19T04:08:54;18.10;1.00
41469;DHT22;27206;47.032;15.484;2022-08-19T04:11:24;18.20;1.50
41469;DHT22;27206;47.032;15.484;2022-08-19T04:13:51;18.30;6.20
41469;DHT22;27206;47.032;15.484;2022-08-19T04:16:18;18.40;1.00
41469;DHT22;27206;47.032;15.484;2022-08-19T04:18:46;18.50;1.00
41469;DHT22;27206;47.032;15.484;2022-08-19T04:21:20;18.40;1.00
41469;DHT22;27206;47.032;15.484;2022-08-19T04:23:47;18.80;1.00
41469;DHT22;27206;47.032;15.484;2022-08-19T04:26:19;18.90;1.00
41469;DHT22;27206;47.032;15.484;2022-08-19T04:28:45;19.20;1.00
41469;DHT22;27206;47.032;15.484;2022-08-19T04:31:17;18.80;1.00
41469;DHT22;27206;47.032;15.484;2022-08-19T04:33:43;18.50;1.00
41469;DHT22;27206;47.032;15.484;2022-08-19T04:36:19;18.40;2.30
41469;DHT22;27206;47.032;15.484;2022-08-19T04:38:49;18.30;6.00
41469;DHT22;27206;47.032;15.484;2022-08-19T04:41:16;18.60;1.00
41469;DHT22;27206;47.032;15.484;2022-08-19T04:44:00;18.60;1.00
41469;DHT22;27206;47.032;15.484;2022-08-19T04:46:27;18.90;1.00
41469;DHT22;27206;47.032;15.484;2022-08-19T04:48:56;19.10;1.00
41469;DHT22;27206;47.032;15.484;2022-08-19T04:51:22;18.90;1.00
41469;DHT22;27206;47.032;15.484;2022-08-19T04:53:48;19.10;1.00
41469;DHT22;27206;47.032;15.484;2022-08-19T04:56:16;19.70;1.00
41469;DHT22;27206;47.032;15.484;2022-08-19T04:58:44;19.70;1.00
41469;DHT22;27206;47.032;15.484;2022-08-19T05:01:18;19.30;1.00
41469;DHT22;27206;47.032;15.484;2022-08-19T05:03:44;19.20;1.00
41469;DHT22;27206;47.032;15.484;2022-08-19T05:06:12;19.20;1.00
41469;DHT22;27206;47.032;15.484;2022-08-19T05:08:40;19.30;1.00
41469;DHT22;27206;47.032;15.484;2022-08-19T05:11:29;19.30;1.00
41469;DHT22;27206;47.032;15.484;2022-08-19T05:13:56;19.40;1.00
41469;DHT22;27206;47.032;15.484;2022-08-19T05:16:23;19.30;1.00
41469;DHT22;27206;47.032;15.484;2022-08-19T05:18:50;19.40;1.00
41469;DHT22;27206;47.032;15.484;2022-08-19T05:21:34;19.40;1.00
41469;DHT22;27206;47.032;15.484;2022-08-19T05:24:20;19.50;1.00
41469;DHT22;27206;47.032;15.484;2022-08-19T05:26:48;19.60;1.00
41469;DHT22;27206;47.032;15.484;2022-08-19T05:29:17;20.00;1.00
41469;DHT22;27206;47.032;15.484;2022-08-19T05:31:44;20.40;1.00
41469;DHT22;27206;47.032;15.484;2022-08-19T05:34:10;20.30;1.00
41469;DHT22;27206;47.032;15.484;2022-08-19T05:36:39;20.20;1.00
41469;DHT22;27206;47.032;15.484;2022-08-19T05:39:07;20.20;1.00
41469;DHT22;27206;47.032;15.484;2022-08-19T05:41:33;20.30;1.00
41469;DHT22;27206;47.032;15.484;2022-08-19T05:44:02;20.40;1.00
41469;DHT22;27206;47.032;15.484;2022-08-19T05:46:31;20.40;1.00
41469;DHT22;27206;47.032;15.484;2022-08-19T05:48:56;20.50;1.00
41469;DHT22;27206;47.032;15.484;2022-08-19T05:51:24;20.70;1.00
41469;DHT22;27206;47.032;15.484;2022-08-19T05:53:51;21.00;1.00
41469;DHT22;27206;47.032;15.484;2022-08-19T05:56:17;21.00;1.00
41469;DHT22;27206;47.032;15.484;2022-08-19T05:58:44;20.90;1.00
41469;DHT22;27206;47.032;15.484;2022-08-19T06:01:17;20.90;1.00
41469;DHT22;27206;47.032;15.484;2022-08-19T06:03:44;20.90;1.00
41469;DHT22;27206;47.032;15.484;2022-08-19T06:06:12;20.90;1.00
41469;DHT22;27206;47.032;15.484;2022-08-19T06:08:38;20.90;1.00
41469;DHT22;27206;47.032;15.484;2022-08-19T06:13:44;21.30;1.00
41469;DHT22;27206;47.032;15.484;2022-08-19T06:16:13;21.30;1.00
41469;DHT22;27206;47.032;15.484;2022-08-19T06:18:44;21.20;1.00
41469;DHT22;27206;47.032;15.484;2022-08-19T06:21:10;21.20;1.00
41469;DHT22;27206;47.032;15.484;2022-08-19T06:23:36;21.30;1.00
41469;DHT22;27206;47.032;15.484;2022-08-19T06:26:01;21.30;1.00
41469;DHT22;27206;47.032;15.484;2022-08-19T06:28:27;21.40;1.00
41469;DHT22;27206;47.032;15.484;2022-08-19T06:30:53;21.50;1.00
41469;DHT22;27206;47.032;15.484;2022-08-19T06:33:18;21.60;1.00
41469;DHT22;27206;47.032;15.484;2022-08-19T06:35:44;21.70;1.00
41469;DHT22;27206;47.032;15.484;2022-08-19T06:38:10;21.70;1.00
41469;DHT22;27206;47.032;15.484;2022-08-19T06:40:36;21.60;1.00
41469;DHT22;27206;47.032;15.484;2022-08-19T06:43:03;21.50;1.00
41469;DHT22;27206;47.032;15.484;2022-08-19T06:45:29;21.60;1.00
41469;DHT22;27206;47.032;15.484;2022-08-19T06:47:55;21.80;1.00
41469;DHT22;27206;47.032;15.484;2022-08-19T06:50:25;21.90;1.00
41469;DHT22;27206;47.032;15.484;2022-08-19T06:52:50;22.00;1.00
41469;DHT22;27206;47.032;15.484;2022-08-19T06:55:16;22.10;1.00
41469;DHT22;27206;47.032;15.484;2022-08-19T06:57:42;22.20;1.00
41469;DHT22;27206;47.032;15.484;2022-08-19T07:00:09;22.20;1.00
41469;DHT22;27206;47.032;15.484;2022-08-19T07:02:40;22.30;1.00
41469;DHT22;27206;47.032;15.484;2022-08-19T07:05:06;22.20;1.00
41469;DHT22;27206;47.032;15.484;2022-08-19T07:07:32;22.20;1.00
41469;DHT22;27206;47.032;15.484;2022-08-19T07:09:58;22.20;1.00
41469;DHT22;27206;47.032;15.484;2022-08-19T07:12:24;22.20;1.00
41469;DHT22;27206;47.032;15.484;2022-08-19T07:14:50;22.20;1.00
41469;DHT22;27206;47.032;15.484;2022-08-19T07:17:15;22.00;1.00
41469;DHT22;27206;47.032;15.484;2022-08-19T07:19:41;22.00;1.00
41469;DHT22;27206;47.032;15.484;2022-08-19T07:22:09;21.90;1.00
41469;DHT22;27206;47.032;15.484;2022-08-19T07:24:35;21.90;1.00
41469;DHT22;27206;47.032;15.484;2022-08-19T07:27:03;21.90;1.00
41469;DHT22;27206;47.032;15.484;2022-08-19T07:29:32;21.90;1.00
41469;DHT22;27206;47.032;15.484;2022-08-19T07:32:02;21.90;1.00
41469;DHT22;27206;47.032;15.484;2022-08-19T07:34:31;22.00;1.00
41469;DHT22;27206;47.032;15.484;2022-08-19T07:37:00;21.90;1.00
41469;DHT22;27206;47.032;15.484;2022-08-19T07:39:28;21.80;1.00
41469;DHT22;27206;47.032;15.484;2022-08-19T07:41:55;21.70;1.00
41469;DHT22;27206;47.032;15.484;2022-08-19T07:44:21;21.90;1.00
41469;DHT22;27206;47.032;15.484;2022-08-19T07:46:51;21.70;1.00
41469;DHT22;27206;47.032;15.484;2022-08-19T07:49:18;21.70;1.00
41469;DHT22;27206;47.032;15.484;2022-08-19T07:51:50;21.70;1.00
41469;DHT22;27206;47.032;15.484;2022-08-19T07:54:16;21.80;1.00
41469;DHT22;27206;47.032;15.484;2022-08-19T07:56:42;21.90;1.00
41469;DHT22;27206;47.032;15.484;2022-08-19T07:59:08;21.80;1.00
41469;DHT22;27206;47.032;15.484;2022-08-19T08:01:35;21.70;1.00
41469;DHT22;27206;47.032;15.484;2022-08-19T08:04:01;21.70;1.00
41469;DHT22;27206;47.032;15.484;2022-08-19T08:06:45;21.60;1.00
41469;DHT22;27206;47.032;15.484;2022-08-19T08:09:32;21.60;1.00
41469;DHT22;27206;47.032;15.484;2022-08-19T08:14:46;21.40;1.00
41469;DHT22;27206;47.032;15.484;2022-08-19T08:17:14;21.30;1.00
41469;DHT22;27206;47.032;15.484;2022-08-19T08:19:41;21.20;1.00
41469;DHT22;27206;47.032;15.484;2022-08-19T08:22:08;21.20;1.00
41469;DHT22;27206;47.032;15.484;2022-08-19T08:24:54;21.20;1.00
41469;DHT22;27206;47.032;15.484;2022-08-19T08:27:23;21.10;1.00
41469;DHT22;27206;47.032;15.484;2022-08-19T08:29:49;21.40;1.00
41469;DHT22;27206;47.032;15.484;2022-08-19T08:32:15;21.40;1.00
41469;DHT22;27206;47.032;15.484;2022-08-19T08:34:42;21.20;6.10
41469;DHT22;27206;47.032;15.484;2022-08-19T08:37:07;21.00;1.50
41469;DHT22;27206;47.032;15.484;2022-08-19T08:39:33;20.80;27.70
41469;DHT22;27206;47.032;15.484;2022-08-19T08:42:28;20.90;23.80
41469;DHT22;27206;47.032;15.484;2022-08-19T08:45:08;20.90;59.70
41469;DHT22;27206;47.032;15.484;2022-08-19T08:47:39;21.00;69.00
41469;DHT22;27206;47.032;15.484;2022-08-19T08:50:18;21.00;99.90
41469;DHT22;27206;47.032;15.484;2022-08-19T08:52:47;21.40;1.00
41469;DHT22;27206;47.032;15.484;2022-08-19T08:55:20;21.70;76.30
41469;DHT22;27206;47.032;15.484;2022-08-19T09:00:19;21.50;98.00
41469;DHT22;27206;47.032;15.484;2022-08-19T09:02:46;21.60;81.30
41469;DHT22;27206;47.032;15.484;2022-08-19T09:05:12;21.50;73.40
41469;DHT22;27206;47.032;15.484;2022-08-19T09:08:07;21.40;37.20
41469;DHT22;27206;47.032;15.484;2022-08-19T09:10:44;21.40;1.00
41469;DHT22;27206;47.032;15.484;2022-08-19T09:16:12;21.50;29.40
41469;DHT22;27206;47.032;15.484;2022-08-19T09:18:45;21.50;7.70
41469;DHT22;27206;47.032;15.484;2022-08-19T09:21:13;21.50;1.00
41469;DHT22;27206;47.032;15.484;2022-08-19T09:23:39;21.50;1.00
41469;DHT22;27206;47.032;15.484;2022-08-19T09:26:13;21.60;1.00
41469;DHT22;27206;47.032;15.484;2022-08-19T09:28:44;22.10;1.00
41469;DHT22;27206;47.032;15.484;2022-08-19T09:31:15;22.40;1.00
41469;DHT22;27206;47.032;15.484;2022-08-19T09:33:41;22.20;1.00
41469;DHT22;27206;47.032;15.484;2022-08-19T09:36:11;22.10;1.00
41469;DHT22;27206;47.032;15.484;2022-08-19T09:38:37;22.20;1.00
41469;DHT22;27206;47.032;15.484;2022-08-19T09:41:17;22.30;1.00
41469;DHT22;27206;47.032;15.484;2022-08-19T09:43:46;22.80;1.00
41469;DHT22;27206;47.032;15.484;2022-08-19T09:46:12;23.00;1.00
41469;DHT22;27206;47.032;15.484;2022-08-19T09:48:39;22.90;1.00
41469;DHT22;27206;47.032;15.484;2022-08-19T09:51:11;22.80;1.00
41469;DHT22;27206;47.032;15.484;2022-08-19T09:53:42;23.00;1.00
41469;DHT22;27206;47.032;15.484;2022-08-19T09:56:08;22.90;1.00
41469;DHT22;27206;47.032;15.484;2022-08-19T09:58:34;22.70;1.00
41469;DHT22;27206;47.032;15.484;2022-08-19T10:01:02;23.10;1.00
41469;DHT22;27206;47.032;15.484;2022-08-19T10:03:29;23.10;1.00
41469;DHT22;27206;47.032;15.484;2022-08-19T10:05:56;23.10;1.00
41469;DHT22;27206;47.032;15.484;2022-08-19T10:08:26;23.20;1.00
41469;DHT22;27206;47.032;15.484;2022-08-19T10:10:52;23.10;1.00
41469;DHT22;27206;47.032;15.484;2022-08-19T10:13:20;23.20;1.00
41469;DHT22;27206;47.032;15.484;2022-08-19T10:15:51;23.20;1.00
41469;DHT22;27206;47.032;15.484;2022-08-19T10:18:18;23.20;1.00
41469;DHT22;27206;47.032;15.484;2022-08-19T10:20:48;23.10;1.00
41469;DHT22;27206;47.032;15.484;2022-08-19T10:23:14;23.10;1.00
41469;DHT22;27206;47.032;15.484;2022-08-19T10:25:41;22.90;1.00
41469;DHT22;27206;47.032;15.484;2022-08-19T10:28:08;23.10;1.00
41469;DHT22;27206;47.032;15.484;2022-08-19T10:30:43;23.00;1.00
41469;DHT22;27206;47.032;15.484;2022-08-19T10:33:08;22.80;1.00
41469;DHT22;27206;47.032;15.484;2022-08-19T10:35:34;22.80;1.00
41469;DHT22;27206;47.032;15.484;2022-08-19T10:38:02;22.80;1.00
41469;DHT22;27206;47.032;15.484;2022-08-19T10:40:28;23.00;1.00
41469;DHT22;27206;47.032;15.484;2022-08-19T10:42:55;23.10;1.00
41469;DHT22;27206;47.032;15.484;2022-08-19T10:45:22;23.30;1.00
41469;DHT22;27206;47.032;15.484;2022-08-19T10:47:52;23.50;1.00
41469;DHT22;27206;47.032;15.484;2022-08-19T10:50:18;23.90;1.00
41469;DHT22;27206;47.032;15.484;2022-08-19T10:53:07;24.00;1.00
41469;DHT22;27206;47.032;15.484;2022-08-19T10:55:39;24.10;1.00
41469;DHT22;27206;47.032;15.484;2022-08-19T10:58:23;24.00;1.00
41469;DHT22;27206;47.032;15.484;2022-08-19T11:00:56;24.00;1.00
41469;DHT22;27206;47.032;15.484;2022-08-19T11:03:23;24.20;1.00
41469;DHT22;27206;47.032;15.484;2022-08-19T11:06:04;24.30;1.00
41469;DHT22;27206;47.032;15.484;2022-08-19T11:08:30;24.50;1.00
41469;DHT22;27206;47.032;15.484;2022-08-19T11:10:59;24.70;1.00
41469;DHT22;27206;47.032;15.484;2022-08-19T11:13:37;25.00;1.00
41469;DHT22;27206;47.032;15.484;2022-08-19T11:16:09;25.20;1.00
41469;DHT22;27206;47.032;15.484;2022-08-19T11:18:46;25.20;1.00
41469;DHT22;27206;47.032;15.484;2022-08-19T11:21:19;25.50;1.00
41469;DHT22;27206;47.032;15.484;2022-08-19T11:23:48;25.30;1.00
41469;DHT22;27206;47.032;15.484;2022-08-19T11:26:15;25.00;1.00
41469;DHT22;27206;47.032;15.484;2022-08-19T11:28:41;24.80;1.00
41469;DHT22;27206;47.032;15.484;2022-08-19T11:31:12;25.10;1.00
41469;DHT22;27206;47.032;15.484;2022-08-19T11:33:38;24.80;1.00
41469;DHT22;27206;47.032;15.484;2022-08-19T11:36:04;24.90;1.00
41469;DHT22;27206;47.032;15.484;2022-08-19T11:38:30;25.10;1.00
41469;DHT22;27206;47.032;15.484;2022-08-19T11:41:01;24.80;1.00
41469;DHT22;27206;47.032;15.484;2022-08-19T11:43:28;25.00;1.00
41469;DHT22;27206;47.032;15.484;2022-08-19T11:45:57;25.10;1.00
41469;DHT22;27206;47.032;15.484;2022-08-19T11:48:24;25.10;1.00
41469;DHT22;27206;47.032;15.484;2022-08-19T11:50:51;25.50;1.00
41469;DHT22;27206;47.032;15.484;2022-08-19T11:53:18;25.70;1.00
41469;DHT22;27206;47.032;15.484;2022-08-19T11:55:46;25.90;1.00
41469;DHT22;27206;47.032;15.484;2022-08-19T11:58:13;25.90;1.00
41469;DHT22;27206;47.032;15.484;2022-08-19T12:00:40;26.10;1.00
41469;DHT22;27206;47.032;15.484;2022-08-19T12:03:07;26.40;1.00
41469;DHT22;27206;47.032;15.484;2022-08-19T12:05:32;26.40;1.00
41469;DHT22;27206;47.032;15.484;2022-08-19T12:07:58;26.60;1.00
41469;DHT22;27206;47.032;15.484;2022-08-19T12:10:24;27.10;1.00
41469;DHT22;27206;47.032;15.484;2022-08-19T12:12:50;27.20;1.00
41469;DHT22;27206;47.032;15.484;2022-08-19T12:15:15;27.80;1.00
41469;DHT22;27206;47.032;15.484;2022-08-19T12:17:42;27.60;1.00
41469;DHT22;27206;47.032;15.484;2022-08-19T12:20:09;27.30;1.00
41469;DHT22;27206;47.032;15.484;2022-08-19T12:22:39;27.10;1.00
41469;DHT22;27206;47.032;15.484;2022-08-19T12:25:07;27.50;1.00
41469;DHT22;27206;47.032;15.484;2022-08-19T12:27:33;28.60;1.00
41469;DHT22;27206;47.032;15.484;2022-08-19T12:30:02;29.30;1.00
41469;DHT22;27206;47.032;15.484;2022-08-19T12:32:28;29.10;1.00
41469;DHT22;27206;47.032;15.484;2022-08-19T12:34:54;29.30;99.90
41469;DHT22;27206;47.032;15.484;2022-08-19T12:37:19;29.60;1.00
41469;DHT22;27206;47.032;15.484;2022-08-19T12:39:45;29.30;99.90
41469;DHT22;27206;47.032;15.484;2022-08-19T12:42:12;29.10;99.90
41469;DHT22;27206;47.032;15.484;2022-08-19T12:44:40;28.90;1.00
41469;DHT22;27206;47.032;15.484;2022-08-19T12:47:09;29.90;99.90
41469;DHT22;27206;47.032;15.484;2022-08-19T12:49:37;30.80;99.90
41469;DHT22;27206;47.032;15.484;2022-08-19T12:52:08;31.10;99.90
41469;DHT22;27206;47.032;15.484;2022-08-19T12:54:35;31.40;99.90
41469;DHT22;27206;47.032;15.484;2022-08-19T12:57:05;31.80;99.90
41469;DHT22;27206;47.032;15.484;2022-08-19T12:59:31;32.30;99.90
41469;DHT22;27206;47.032;15.484;2022-08-19T13:01:57;32.00;99.90
41469;DHT22;27206;47.032;15.484;2022-08-19T13:04:23;32.80;99.90
41469;DHT22;27206;47.032;15.484;2022-08-19T13:06:48;32.50;99.90
41469;DHT22;27206;47.032;15.484;2022-08-19T13:09:14;32.50;99.90
41469;DHT22;27206;47.032;15.484;2022-08-19T13:11:39;31.90;99.90
41469;DHT22;27206;47.032;15.484;2022-08-19T13:14:05;30.70;99.90
41469;DHT22;27206;47.032;15.484;2022-08-19T13:16:31;30.20;99.90
41469;DHT22;27206;47.032;15.484;2022-08-19T13:18:57;30.30;99.90
41469;DHT22;27206;47.032;15.484;2022-08-19T13:21:25;30.40;99.90
41469;DHT22;27206;47.032;15.484;2022-08-19T13:23:51;30.10;99.90
41469;DHT22;27206;47.032;15.484;2022-08-19T13:26:18;29.90;99.90
41469;DHT22;27206;47.032;15.484;2022-08-19T13:28:44;29.30;99.90
41469;DHT22;27206;47.032;15.484;2022-08-19T13:31:32;28.90;99.90
41469;DHT22;27206;47.032;15.484;2022-08-19T13:34:18;29.10;99.90
41469;DHT22;27206;47.032;15.484;2022-08-19T13:36:45;29.20;99.90
41469;DHT22;27206;47.032;15.484;2022-08-19T13:39:11;29.10;99.90
41469;DHT22;27206;47.032;15.484;2022-08-19T13:41:42;28.80;99.90
41469;DHT22;27206;47.032;15.484;2022-08-19T13:44:08;30.10;99.90
41469;DHT22;27206;47.032;15.484;2022-08-19T13:46:34;31.20;99.90
41469;DHT22;27206;47.032;15.484;2022-08-19T13:48:59;31.50;99.90
41469;DHT22;27206;47.032;15.484;2022-08-19T13:51:25;31.30;99.90
41469;DHT22;27206;47.032;15.484;2022-08-19T13:53:51;31.60;99.90
41469;DHT22;27206;47.032;15.484;2022-08-19T13:56:18;31.40;99.90
41469;DHT22;27206;47.032;15.484;2022-08-19T13:58:46;31.40;99.90
41469;DHT22;27206;47.032;15.484;2022-08-19T14:01:12;31.40;99.90
41469;DHT22;27206;47.032;15.484;2022-08-19T14:03:43;31.50;99.90
41469;DHT22;27206;47.032;15.484;2022-08-19T14:06:09;31.90;99.90
41469;DHT22;27206;47.032;15.484;2022-08-19T14:08:35;32.20;99.90
41469;DHT22;27206;47.032;15.484;2022-08-19T14:11:04;31.90;99.90
41469;DHT22;27206;47.032;15.484;2022-08-19T14:13:30;31.80;99.90
41469;DHT22;27206;47.032;15.484;2022-08-19T14:15:58;32.00;99.90
41469;DHT22;27206;47.032;15.484;2022-08-19T14:18:24;31.90;99.90
41469;DHT22;27206;47.032;15.484;2022-08-19T14:20:50;32.20;99.90
41469;DHT22;27206;47.032;15.484;2022-08-19T14:23:16;32.30;99.90
41469;DHT22;27206;47.032;15.484;2022-08-19T14:25:42;32.10;99.90
41469;DHT22;27206;47.032;15.484;2022-08-19T14:28:08;31.90;99.90
41469;DHT22;27206;47.032;15.484;2022-08-19T14:30:35;32.10;99.90
41469;DHT22;27206;47.032;15.484;2022-08-19T14:33:03;32.40;99.90
41469;DHT22;27206;47.032;15.484;2022-08-19T14:35:32;32.70;99.90
41469;DHT22;27206;47.032;15.484;2022-08-19T14:38:03;32.70;99.90
41469;DHT22;27206;47.032;15.484;2022-08-19T14:40:31;32.50;99.90
41469;DHT22;27206;47.032;15.484;2022-08-19T14:43:00;32.10;99.90
41469;DHT22;27206;47.032;15.484;2022-08-19T14:45:30;32.40;99.90
41469;DHT22;27206;47.032;15.484;2022-08-19T14:47:56;32.10;99.90
41469;DHT22;27206;47.032;15.484;2022-08-19T14:50:21;31.20;99.90
41469;DHT22;27206;47.032;15.484;2022-08-19T14:52:48;31.50;99.90
41469;DHT22;27206;47.032;15.484;2022-08-19T14:55:15;32.00;99.90
41469;DHT22;27206;47.032;15.484;2022-08-19T14:57:42;31.80;99.90
41469;DHT22;27206;47.032;15.484;2022-08-19T15:00:09;31.60;99.90
41469;DHT22;27206;47.032;15.484;2022-08-19T15:02:39;31.60;99.90
41469;DHT22;27206;47.032;15.484;2022-08-19T15:05:05;31.00;99.90
41469;DHT22;27206;47.032;15.484;2022-08-19T15:07:31;30.60;99.90
41469;DHT22;27206;47.032;15.484;2022-08-19T15:09:57;30.40;99.90
41469;DHT22;27206;47.032;15.484;2022-08-19T15:12:23;30.40;99.90
41469;DHT22;27206;47.032;15.484;2022-08-19T15:14:50;30.20;99.90
41469;DHT22;27206;47.032;15.484;2022-08-19T15:17:17;29.70;99.90
41469;DHT22;27206;47.032;15.484;2022-08-19T15:19:44;29.60;99.90
41469;DHT22;27206;47.032;15.484;2022-08-19T15:22:10;29.80;99.90
41469;DHT22;27206;47.032;15.484;2022-08-19T15:24:36;30.40;99.90
41469;DHT22;27206;47.032;15.484;2022-08-19T15:27:03;31.20;99.90
41469;DHT22;27206;47.032;15.484;2022-08-19T15:29:30;30.50;99.90
41469;DHT22;27206;47.032;15.484;2022-08-19T15:31:57;30.20;99.90
41469;DHT22;27206;47.032;15.484;2022-08-19T15:34:24;29.70;99.90
41469;DHT22;27206;47.032;15.484;2022-08-19T15:36:51;29.20;99.90
41469;DHT22;27206;47.032;15.484;2022-08-19T15:39:17;29.00;99.90
41469;DHT22;27206;47.032;15.484;2022-08-19T15:41:44;28.70;99.90
41469;DHT22;27206;47.032;15.484;2022-08-19T15:44:14;28.30;99.90
41469;DHT22;27206;47.032;15.484;2022-08-19T15:46:41;28.10;99.90
41469;DHT22;27206;47.032;15.484;2022-08-19T15:49:15;28.00;99.90